Time;durP1;ratioP1;P1;durP2;ratioP2;P2;SDS_P1;SDS_P2;PMS_P1;PMS_P2;Temp;Humidity;BMP_temperature;BMP_pressure;BME280_temperature;BME280_humidity;BME280_pressure;Samples;Min_cycle;Max_cycle;Signal;HPM_P1;HPM_P2
2022/03/31 00:00:20;;;;;;;;;0.00;0.00;;;;;3.09;94.44;-18546.41;4968754;28;11486;-68
2022/03/31 00:02:46;;;;;;;;;0.00;0.00;;;;;3.05;93.65;-18545.22;4967613;28;11588;-69
2022/03/31 00:05:13;;;;;;;;;0.00;0.00;;;;;2.96;93.74;-18542.31;4968621;28;11462;-68
2022/03/31 00:07:53;;;;;;;;;0.00;0.00;;;;;2.89;93.72;-18540.22;4970069;28;11572;-68
2022/03/31 00:10:26;;;;;;;;;0.00;0.00;;;;;2.69;93.33;-18534.47;4972934;28;11477;-69
2022/03/31 00:12:54;;;;;;;;;0.00;0.00;;;;;2.75;93.93;-18536.13;4970451;28;11589;-70
2022/03/31 00:15:22;;;;;;;;;0.00;0.00;;;;;2.66;93.90;-18533.53;4972550;28;11449;-69
2022/03/31 00:17:48;;;;;;;;;0.25;0.00;;;;;2.58;93.74;-18531.13;4969109;28;11649;-69
2022/03/31 00:20:15;;;;;;;;;0.00;0.00;;;;;2.42;93.77;-18526.28;4973531;28;12184;-72
2022/03/31 00:22:41;;;;;;;;;0.00;0.00;;;;;2.45;94.54;-18527.34;4971690;28;11640;-68
2022/03/31 00:25:08;;;;;;;;;0.00;0.00;;;;;2.46;94.98;-18527.63;4974057;28;11467;-71
2022/03/31 00:27:35;;;;;;;;;0.00;0.00;;;;;2.45;95.06;-18527.34;4972485;28;11448;-70
2022/03/31 00:30:03;;;;;;;;;0.00;0.00;;;;;2.62;95.78;-18532.34;4972105;28;11460;-68
2022/03/31 00:32:29;;;;;;;;;0.00;0.00;;;;;2.63;95.33;-18532.50;4973674;28;11606;-69
2022/03/31 00:34:55;;;;;;;;;0.25;0.00;;;;;2.63;95.13;-18532.63;4973023;28;11602;-68
2022/03/31 00:37:22;;;;;;;;;0.00;0.00;;;;;2.74;94.99;-18535.81;4968135;28;12303;-68
2022/03/31 00:39:48;;;;;;;;;0.00;0.00;;;;;2.57;94.30;-18530.66;4969741;28;11478;-71
2022/03/31 00:42:16;;;;;;;;;0.00;0.00;;;;;2.67;94.66;-18533.84;4972693;28;11481;-70
2022/03/31 00:44:43;;;;;;;;;0.00;0.00;;;;;2.60;94.67;-18531.59;4972415;28;11495;-68
2022/03/31 00:47:10;;;;;;;;;0.00;0.00;;;;;2.49;94.77;-18528.25;4972861;28;12173;-68
2022/03/31 00:49:36;;;;;;;;;0.00;0.00;;;;;2.50;95.16;-18528.72;4971994;28;11602;-67
2022/03/31 00:52:03;;;;;;;;;2.25;0.00;;;;;2.62;95.08;-18532.19;4966294;28;11640;-68
2022/03/31 00:54:32;;;;;;;;;0.00;0.00;;;;;2.55;94.49;-18530.06;4967910;28;11493;-68
2022/03/31 00:57:02;;;;;;;;;0.00;0.00;;;;;2.66;95.46;-18533.41;4973347;28;11536;-69
2022/03/31 00:59:29;;;;;;;;;1.00;0.00;;;;;2.69;95.41;-18534.31;4971290;28;11484;-68
2022/03/31 01:01:58;;;;;;;;;0.75;0.00;;;;;2.84;95.75;-18538.84;4970409;28;11436;-68
2022/03/31 01:04:27;;;;;;;;;0.00;0.00;;;;;2.72;94.80;-18535.22;4973364;28;11500;-68
2022/03/31 01:06:53;;;;;;;;;0.00;0.00;;;;;2.74;95.43;-18535.97;4971839;28;11508;-68
2022/03/31 01:09:23;;;;;;;;;0.75;0.00;;;;;2.61;94.91;-18531.88;4972839;28;11537;-68
2022/03/31 01:11:51;;;;;;;;;0.00;0.00;;;;;2.54;93.95;-18529.91;4972425;28;11468;-68
2022/03/31 01:14:19;;;;;;;;;0.00;0.00;;;;;2.57;94.69;-18530.66;4971153;28;11643;-69
2022/03/31 01:16:45;;;;;;;;;1.00;0.00;;;;;2.53;94.18;-18529.47;4971331;28;11498;-71
2022/03/31 01:19:12;;;;;;;;;0.00;0.00;;;;;2.53;93.74;-18529.47;4972066;28;11454;-69
2022/03/31 01:21:41;;;;;;;;;0.00;0.00;;;;;2.49;93.13;-18528.25;4961867;28;11506;-68
2022/03/31 01:24:10;;;;;;;;;0.00;0.00;;;;;2.29;93.28;-18522.50;4972871;28;11466;-68
2022/03/31 01:26:40;;;;;;;;;0.25;0.00;;;;;2.25;93.86;-18521.13;4972729;28;11639;-69
2022/03/31 01:29:08;;;;;;;;;0.00;0.00;;;;;2.23;94.27;-18520.69;4969517;28;11617;-69
2022/03/31 01:31:37;;;;;;;;;0.00;0.00;;;;;2.23;94.11;-18520.53;4971328;28;11495;-68
2022/03/31 01:34:08;;;;;;;;;0.00;0.00;;;;;2.24;93.74;-18520.84;4971248;28;11627;-69
2022/03/31 01:36:35;;;;;;;;;0.00;0.00;;;;;2.30;93.77;-18522.81;4972695;28;11485;-69
2022/03/31 01:39:02;;;;;;;;;0.00;0.00;;;;;2.37;93.89;-18524.91;4969739;28;11542;-73
2022/03/31 01:41:29;;;;;;;;;0.00;0.00;;;;;2.40;94.17;-18525.69;4964129;28;11482;-73
2022/03/31 01:43:56;;;;;;;;;0.00;0.00;;;;;2.42;94.01;-18526.28;4968029;28;11489;-70
2022/03/31 01:46:23;;;;;;;;;0.00;0.00;;;;;2.47;94.19;-18527.78;4971459;28;11505;-68
2022/03/31 01:48:52;;;;;;;;;0.00;0.00;;;;;2.45;93.80;-18527.19;4971545;28;11451;-68
2022/03/31 01:51:19;;;;;;;;;0.00;0.00;;;;;2.15;93.58;-18518.41;4970733;28;11502;-68
2022/03/31 01:53:47;;;;;;;;;0.00;0.00;;;;;2.27;94.79;-18521.88;4960368;28;11471;-68
2022/03/31 01:56:13;;;;;;;;;0.00;0.00;;;;;1.89;95.16;-18510.38;4970355;28;11503;-69
2022/03/31 01:58:40;;;;;;;;;0.00;0.00;;;;;1.95;96.37;-18512.34;4970901;28;11501;-68
2022/03/31 02:01:06;;;;;;;;;0.50;0.00;;;;;2.02;96.15;-18514.31;4966729;28;11491;-67
2022/03/31 02:03:33;;;;;;;;;0.50;0.50;;;;;2.11;96.98;-18517.03;4972144;28;11502;-68
2022/03/31 02:06:00;;;;;;;;;0.00;0.00;;;;;2.35;97.16;-18524.16;4971422;28;12294;-67
2022/03/31 02:08:27;;;;;;;;;0.00;0.00;;;;;2.26;95.98;-18521.44;4967940;28;11505;-68
2022/03/31 02:10:53;;;;;;;;;0.00;0.00;;;;;2.19;96.56;-18519.31;4963176;28;11578;-69
2022/03/31 02:13:20;;;;;;;;;0.00;0.00;;;;;2.17;96.76;-18519.00;4972275;28;11463;-70
2022/03/31 02:15:46;;;;;;;;;0.00;0.00;;;;;2.24;97.08;-18520.84;4972074;28;12171;-68
2022/03/31 02:18:13;;;;;;;;;0.00;0.00;;;;;2.30;97.05;-18522.81;4972200;28;12192;-68
2022/03/31 02:20:41;;;;;;;;;0.00;0.00;;;;;2.16;95.74;-18518.72;4962791;28;11578;-68
2022/03/31 02:23:08;;;;;;;;;1.25;0.00;;;;;2.15;96.44;-18518.25;4965506;28;11550;-68
2022/03/31 02:25:34;;;;;;;;;1.50;0.75;;;;;2.34;97.02;-18523.84;4967786;28;11607;-68
2022/03/31 02:28:01;;;;;;;;;0.00;0.00;;;;;2.32;96.82;-18523.25;4969349;28;12569;-68
2022/03/31 02:30:28;;;;;;;;;1.00;0.75;;;;;2.42;96.81;-18526.44;4968816;28;11588;-71
2022/03/31 02:32:59;;;;;;;;;0.00;0.00;;;;;2.46;96.59;-18527.50;4970317;28;11562;-68
2022/03/31 02:35:26;;;;;;;;;1.00;0.50;;;;;2.36;96.81;-18524.47;4970110;28;11632;-70
2022/03/31 02:37:53;;;;;;;;;2.00;2.00;;;;;2.41;97.18;-18526.13;4968680;28;11494;-69
2022/03/31 02:40:19;;;;;;;;;0.00;0.00;;;;;2.46;97.04;-18527.50;4970039;28;12639;-68
2022/03/31 02:42:46;;;;;;;;;0.50;0.50;;;;;2.51;97.15;-18529.00;4970828;28;11504;-69
2022/03/31 02:45:14;;;;;;;;;0.00;0.00;;;;;2.31;96.93;-18523.09;4971180;28;12249;-68
2022/03/31 02:47:40;;;;;;;;;0.75;0.00;;;;;2.50;97.38;-18528.72;4971762;28;11598;-68
2022/03/31 02:50:07;;;;;;;;;1.00;1.00;;;;;2.47;97.26;-18527.78;4966268;28;11557;-68
2022/03/31 02:55:24;;;;;;;;;0.25;0.00;;;;;2.66;97.83;-18533.53;4970827;28;11479;-68
2022/03/31 02:58:02;;;;;;;;;2.50;0.00;;;;;2.65;97.52;-18533.25;4970750;28;11523;-71
2022/03/31 03:00:35;;;;;;;;;1.25;0.25;;;;;2.68;97.79;-18534.16;4964320;28;11488;-70
2022/03/31 03:03:03;;;;;;;;;0.00;0.00;;;;;2.67;97.51;-18533.69;4970891;28;11485;-68
2022/03/31 03:05:31;;;;;;;;;0.00;0.00;;;;;2.72;97.96;-18535.38;4970719;28;11442;-68
2022/03/31 03:07:58;;;;;;;;;1.00;1.00;;;;;2.74;97.44;-18535.81;4967135;28;11463;-68
2022/03/31 03:10:24;;;;;;;;;4.00;1.00;;;;;2.65;96.75;-18533.09;4970103;28;11531;-67
2022/03/31 03:12:51;;;;;;;;;0.00;0.00;;;;;2.57;96.73;-18530.66;4971015;28;11522;-71
2022/03/31 03:15:18;;;;;;;;;1.00;1.00;;;;;2.64;97.23;-18532.78;4961895;28;12192;-68
2022/03/31 03:17:46;;;;;;;;;0.00;0.00;;;;;2.66;97.29;-18533.53;4968312;28;11603;-68
2022/03/31 03:20:15;;;;;;;;;1.00;1.00;;;;;2.61;97.13;-18532.03;4969866;28;11607;-68
2022/03/31 03:22:49;;;;;;;;;1.25;1.25;;;;;2.52;97.16;-18529.31;4969679;28;11474;-68
2022/03/31 03:25:19;;;;;;;;;2.00;0.75;;;;;2.53;97.45;-18529.47;4970886;28;11470;-69
2022/03/31 03:27:48;;;;;;;;;1.00;1.00;;;;;2.66;97.67;-18533.53;4970438;28;11622;-69
2022/03/31 03:30:18;;;;;;;;;0.00;0.00;;;;;2.68;97.22;-18534.00;4968085;28;12307;-68
2022/03/31 03:32:45;;;;;;;;;0.50;0.00;;;;;2.58;97.05;-18531.13;4970778;28;11473;-69
2022/03/31 03:35:13;;;;;;;;;0.50;0.50;;;;;2.61;96.84;-18532.03;4962870;28;11460;-72
2022/03/31 03:37:41;;;;;;;;;0.50;0.00;;;;;2.55;95.40;-18530.06;4970198;28;11520;-70
2022/03/31 03:40:10;;;;;;;;;1.25;0.25;;;;;2.78;95.54;-18537.03;4970903;28;11514;-71
2022/03/31 03:42:39;;;;;;;;;0.00;0.00;;;;;2.68;93.61;-18534.00;4970546;28;11537;-68
2022/03/31 03:45:08;;;;;;;;;0.75;0.00;;;;;2.70;93.10;-18534.75;4970682;28;11456;-68
2022/03/31 03:47:34;;;;;;;;;0.00;0.00;;;;;2.63;92.69;-18532.50;4974854;28;11589;-68
2022/03/31 03:50:01;;;;;;;;;0.00;0.00;;;;;2.65;92.82;-18533.25;4972906;28;11494;-68
2022/03/31 03:52:27;;;;;;;;;0.00;0.00;;;;;2.64;92.31;-18532.78;4973245;28;11575;-69
2022/03/31 03:54:54;;;;;;;;;0.00;0.00;;;;;2.73;92.94;-18535.66;4961555;28;11635;-69
2022/03/31 03:57:22;;;;;;;;;1.00;1.00;;;;;2.58;92.48;-18530.97;4972425;28;11625;-72
2022/03/31 03:59:49;;;;;;;;;2.25;0.00;;;;;2.65;92.99;-18533.09;4974287;28;11503;-69
2022/03/31 04:02:15;;;;;;;;;0.00;0.00;;;;;2.79;93.59;-18537.34;4971622;28;11566;-68
2022/03/31 04:04:42;;;;;;;;;0.00;0.00;;;;;2.69;93.09;-18534.47;4972595;28;12336;-68
2022/03/31 04:07:08;;;;;;;;;0.00;0.00;;;;;2.78;94.36;-18537.19;4973667;28;12251;-70
2022/03/31 04:09:35;;;;;;;;;0.00;0.00;;;;;2.86;94.34;-18539.44;4973203;28;11488;-70
2022/03/31 04:12:02;;;;;;;;;0.75;0.75;;;;;2.62;93.67;-18532.34;4965261;28;11466;-67
2022/03/31 04:14:28;;;;;;;;;1.00;1.00;;;;;2.68;94.25;-18534.16;4973454;28;12252;-69
2022/03/31 04:16:55;;;;;;;;;1.00;0.00;;;;;2.63;93.33;-18532.50;4972717;28;11487;-71
2022/03/31 04:19:22;;;;;;;;;1.75;1.75;;;;;2.56;93.28;-18530.53;4973477;28;12264;-68
2022/03/31 04:21:49;;;;;;;;;0.00;0.00;;;;;2.73;93.90;-18535.53;4966220;28;11577;-70
2022/03/31 04:24:15;;;;;;;;;0.50;0.00;;;;;2.68;93.52;-18534.00;4970723;28;11641;-68
2022/03/31 04:26:42;;;;;;;;;0.25;0.25;;;;;2.80;93.77;-18537.63;4973857;28;11622;-70
2022/03/31 04:29:10;;;;;;;;;1.00;1.00;;;;;2.83;93.44;-18538.41;4972843;28;11561;-68
2022/03/31 04:31:39;;;;;;;;;0.00;0.00;;;;;2.88;93.44;-18539.91;4972061;28;11476;-68
2022/03/31 04:34:05;;;;;;;;;0.00;0.00;;;;;2.82;92.01;-18538.25;4973504;28;11451;-68
2022/03/31 04:36:32;;;;;;;;;1.00;1.00;;;;;2.85;92.43;-18539.00;4972487;28;11487;-68
2022/03/31 04:38:58;;;;;;;;;0.25;0.00;;;;;2.93;92.48;-18541.41;4973469;28;11539;-68
2022/03/31 04:41:25;;;;;;;;;0.00;0.00;;;;;2.95;92.31;-18542.03;4964324;28;11467;-68
2022/03/31 04:43:52;;;;;;;;;0.50;0.00;;;;;3.02;92.29;-18544.31;4973377;28;11569;-70
2022/03/31 04:46:19;;;;;;;;;0.00;0.00;;;;;3.04;91.71;-18544.75;4972900;28;12273;-68
2022/03/31 04:48:46;;;;;;;;;0.25;0.00;;;;;3.04;91.33;-18544.75;4972966;28;11518;-69
2022/03/31 04:51:12;;;;;;;;;1.00;0.00;;;;;3.03;91.53;-18544.44;4970193;28;11603;-69
2022/03/31 04:53:39;;;;;;;;;0.00;0.00;;;;;3.04;90.42;-18544.75;4971711;28;11493;-68
2022/03/31 04:56:06;;;;;;;;;0.00;0.00;;;;;3.08;90.21;-18545.97;4973191;28;11474;-71
2022/03/31 04:58:32;;;;;;;;;0.00;0.00;;;;;3.15;90.81;-18547.94;4973542;28;11634;-69
2022/03/31 05:00:58;;;;;;;;;0.00;0.00;;;;;3.05;90.17;-18545.06;4971689;28;12266;-70
2022/03/31 05:03:25;;;;;;;;;0.00;0.00;;;;;3.16;89.64;-18548.38;4973414;28;12198;-69
2022/03/31 05:05:52;;;;;;;;;1.00;0.25;;;;;3.06;89.21;-18545.50;4970866;28;11463;-72
2022/03/31 05:08:18;;;;;;;;;0.00;0.00;;;;;3.05;89.45;-18545.22;4970660;28;11603;-74
2022/03/31 05:10:45;;;;;;;;;0.00;0.00;;;;;3.18;90.33;-18548.84;4973275;28;11565;-69
2022/03/31 05:13:12;;;;;;;;;0.00;0.00;;;;;3.20;90.51;-18549.44;4972856;28;11471;-71
2022/03/31 05:15:39;;;;;;;;;0.00;0.00;;;;;3.05;89.55;-18545.06;4966455;28;11576;-71
2022/03/31 05:18:05;;;;;;;;;0.00;0.00;;;;;3.06;89.13;-18545.34;4973225;28;12305;-69
2022/03/31 05:20:32;;;;;;;;;1.00;0.00;;;;;3.13;89.93;-18547.47;4971541;28;11549;-69
2022/03/31 05:22:59;;;;;;;;;0.00;0.00;;;;;3.19;90.94;-18549.28;4965461;28;11481;-70
2022/03/31 05:25:26;;;;;;;;;0.00;0.00;;;;;3.13;90.43;-18547.47;4972164;28;11497;-69
2022/03/31 05:27:53;;;;;;;;;0.00;0.00;;;;;3.18;90.21;-18549.00;4969394;28;11464;-71
2022/03/31 05:30:19;;;;;;;;;0.00;0.00;;;;;3.08;90.05;-18545.97;4970825;28;11590;-70
2022/03/31 05:32:46;;;;;;;;;0.50;0.50;;;;;3.28;91.29;-18552.03;4972319;28;11468;-72
2022/03/31 05:35:13;;;;;;;;;5.00;1.00;;;;;3.37;92.14;-18554.59;4972700;28;11582;-70
2022/03/31 05:37:41;;;;;;;;;1.00;1.00;;;;;3.26;91.91;-18551.41;4973085;28;11465;-69
2022/03/31 05:40:10;;;;;;;;;0.00;0.00;;;;;3.24;91.64;-18550.66;4970102;28;11471;-74
2022/03/31 05:42:37;;;;;;;;;1.75;0.25;;;;;3.06;92.27;-18545.50;4969217;28;11496;-68
2022/03/31 05:45:05;;;;;;;;;1.00;1.00;;;;;3.19;93.17;-18549.28;4972314;28;11467;-70
2022/03/31 05:47:32;;;;;;;;;0.00;0.00;;;;;3.29;93.65;-18552.16;4972825;28;11484;-70
2022/03/31 05:49:58;;;;;;;;;0.75;0.75;;;;;3.20;93.93;-18549.44;4973571;28;12232;-69
2022/03/31 05:52:31;;;;;;;;;1.00;1.00;;;;;3.21;93.94;-18549.91;4972130;28;11703;-69
2022/03/31 05:55:00;;;;;;;;;1.00;0.75;;;;;3.19;93.85;-18549.28;4971193;28;11545;-69
2022/03/31 05:57:26;;;;;;;;;0.00;0.00;;;;;3.14;94.12;-18547.63;4967637;28;11518;-69
2022/03/31 05:59:53;;;;;;;;;1.00;1.00;;;;;3.14;94.65;-18547.63;4965406;28;11448;-70
2022/03/31 06:02:19;;;;;;;;;2.25;1.75;;;;;3.19;94.55;-18549.28;4972552;28;11504;-69
2022/03/31 06:05:06;;;;;;;;;1.50;1.50;;;;;3.08;93.81;-18546.13;4971789;28;11460;-71
2022/03/31 06:07:33;;;;;;;;;2.25;1.25;;;;;3.08;93.75;-18545.97;4970911;28;11518;-69
2022/03/31 06:09:59;;;;;;;;;1.00;1.00;;;;;3.14;93.84;-18547.63;4970760;28;11498;-69
2022/03/31 06:12:26;;;;;;;;;0.75;0.75;;;;;3.12;92.64;-18547.19;4956262;28;11626;-71
2022/03/31 06:14:52;;;;;;;;;1.00;1.00;;;;;3.06;92.42;-18545.50;4968892;28;11560;-70
2022/03/31 06:17:18;;;;;;;;;1.00;1.00;;;;;3.14;92.78;-18547.63;4972324;28;11624;-68
2022/03/31 06:19:45;;;;;;;;;0.00;0.00;;;;;3.22;93.33;-18550.06;4972074;28;11609;-69
2022/03/31 06:22:11;;;;;;;;;1.00;1.00;;;;;3.14;92.63;-18547.63;4971655;28;11470;-68
2022/03/31 06:24:38;;;;;;;;;0.00;0.00;;;;;3.14;92.55;-18547.63;4972116;28;11628;-71
2022/03/31 06:27:07;;;;;;;;;0.00;0.00;;;;;3.26;92.74;-18551.41;4973394;28;11523;-70
2022/03/31 06:29:34;;;;;;;;;3.00;3.00;;;;;3.19;92.08;-18549.13;4970009;28;11488;-70
2022/03/31 06:32:02;;;;;;;;;1.50;1.50;;;;;3.26;92.34;-18551.41;4971407;28;11591;-70
2022/03/31 06:34:29;;;;;;;;;3.00;3.00;;;;;3.05;91.40;-18545.06;4971749;28;11506;-71
2022/03/31 06:36:55;;;;;;;;;3.50;3.50;;;;;3.12;91.70;-18547.19;4970905;28;11508;-70
2022/03/31 06:39:22;;;;;;;;;2.00;1.25;;;;;3.20;91.76;-18549.44;4968919;28;11653;-70
2022/03/31 06:41:48;;;;;;;;;3.00;3.00;;;;;3.09;91.64;-18546.28;4970439;28;11467;-69
2022/03/31 06:44:16;;;;;;;;;1.50;1.50;;;;;3.10;91.29;-18546.56;4971746;28;11491;-72
2022/03/31 06:46:42;;;;;;;;;1.75;1.75;;;;;3.04;90.76;-18544.75;4971863;28;11475;-69
2022/03/31 06:49:09;;;;;;;;;2.00;0.75;;;;;3.13;91.51;-18547.47;4971594;28;11515;-69
2022/03/31 06:51:35;;;;;;;;;2.00;2.00;;;;;3.17;91.66;-18548.53;4969693;28;11511;-74
2022/03/31 06:54:03;;;;;;;;;1.00;1.00;;;;;3.09;92.18;-18546.28;4971393;28;11585;-70
2022/03/31 06:56:30;;;;;;;;;1.25;1.25;;;;;3.21;93.25;-18549.91;4971451;28;11506;-71
2022/03/31 06:58:59;;;;;;;;;0.75;0.75;;;;;3.11;92.96;-18546.88;4971571;28;11577;-69
2022/03/31 07:01:25;;;;;;;;;2.00;2.00;;;;;3.08;93.63;-18545.97;4971070;28;11604;-72
2022/03/31 07:03:52;;;;;;;;;2.00;2.00;;;;;3.16;94.15;-18548.38;4971370;28;11497;-71
2022/03/31 07:06:20;;;;;;;;;3.50;3.50;;;;;3.06;93.58;-18545.50;4960023;28;11643;-69
2022/03/31 07:08:47;;;;;;;;;1.00;1.00;;;;;3.08;94.00;-18546.13;4962641;28;11524;-69
2022/03/31 07:11:14;;;;;;;;;1.00;1.00;;;;;3.29;94.12;-18552.16;4962821;28;11481;-70
2022/03/31 07:13:41;;;;;;;;;1.00;1.00;;;;;3.21;93.52;-18549.75;4963556;28;11459;-70
2022/03/31 07:16:07;;;;;;;;;2.00;2.00;;;;;3.29;94.00;-18552.31;4962309;28;11465;-69
2022/03/31 07:18:34;;;;;;;;;2.50;1.00;;;;;3.21;93.64;-18549.91;4963417;28;12537;-71
2022/03/31 07:21:01;;;;;;;;;1.50;1.50;;;;;3.35;94.39;-18554.00;4966772;28;11551;-69
2022/03/31 07:23:28;;;;;;;;;1.25;1.25;;;;;3.33;94.68;-18553.53;4965841;28;11568;-70
2022/03/31 07:25:58;;;;;;;;;3.00;2.50;;;;;3.25;94.20;-18551.13;4966004;28;11518;-70
2022/03/31 07:28:24;;;;;;;;;1.25;1.25;;;;;3.27;94.06;-18551.72;4968151;28;11586;-70
2022/03/31 07:30:51;;;;;;;;;4.75;3.50;;;;;3.25;94.98;-18550.97;4969510;28;11521;-73
2022/03/31 07:33:20;;;;;;;;;3.25;3.00;;;;;3.37;95.21;-18554.75;4972655;28;12251;-68
2022/03/31 07:35:48;;;;;;;;;4.75;2.00;;;;;3.29;95.31;-18552.31;4973365;28;12184;-68
2022/03/31 07:38:16;;;;;;;;;3.25;3.25;;;;;3.39;95.67;-18555.19;4972773;28;11650;-69
2022/03/31 07:40:43;;;;;;;;;3.00;3.00;;;;;3.38;95.71;-18555.03;4973606;28;11469;-68
2022/03/31 07:43:10;;;;;;;;;3.00;3.00;;;;;3.35;95.71;-18554.13;4969219;28;11520;-69
2022/03/31 07:45:37;;;;;;;;;4.25;2.75;;;;;3.28;95.48;-18552.03;4971814;28;11518;-71
2022/03/31 07:48:05;;;;;;;;;3.75;3.75;;;;;3.29;95.25;-18552.16;4967272;28;11524;-70
2022/03/31 07:50:33;;;;;;;;;1.50;1.00;;;;;3.46;95.77;-18557.31;4966035;28;11554;-71
2022/03/31 07:52:59;;;;;;;;;4.00;2.00;;;;;3.43;95.43;-18556.25;4966722;28;11618;-71
2022/03/31 07:55:26;;;;;;;;;2.00;2.00;;;;;3.50;96.23;-18558.38;4966848;28;11498;-68
2022/03/31 07:57:53;;;;;;;;;4.00;4.00;;;;;3.52;95.72;-18558.97;4966534;28;11471;-68
2022/03/31 08:00:20;;;;;;;;;2.00;2.00;;;;;3.41;95.24;-18555.81;4969891;28;11515;-72
2022/03/31 08:02:51;;;;;;;;;4.00;4.00;;;;;3.48;95.44;-18557.94;4969878;28;11492;-72
2022/03/31 08:05:20;;;;;;;;;3.25;3.00;;;;;3.49;95.39;-18558.06;4969349;28;11621;-72
2022/03/31 08:07:48;;;;;;;;;3.50;3.50;;;;;3.47;94.64;-18557.47;4973986;28;11519;-71
2022/03/31 08:10:15;;;;;;;;;3.50;3.00;;;;;3.45;94.92;-18556.88;4973126;28;11532;-69
2022/03/31 08:12:44;;;;;;;;;1.00;1.00;;;;;3.61;95.49;-18561.72;4974487;28;11525;-70
2022/03/31 08:15:10;;;;;;;;;4.00;4.00;;;;;3.64;95.01;-18562.75;4975687;28;11600;-68
2022/03/31 08:17:38;;;;;;;;;4.00;3.00;;;;;3.57;95.01;-18560.66;4974994;28;11480;-69
2022/03/31 08:20:07;;;;;;;;;4.75;4.75;;;;;3.75;95.52;-18565.94;4968857;28;11505;-68
2022/03/31 08:22:34;;;;;;;;;3.00;3.00;;;;;3.57;94.14;-18560.50;4973585;28;11491;-70
2022/03/31 08:25:02;;;;;;;;;2.00;2.00;;;;;3.55;94.74;-18560.03;4974240;28;11485;-68
2022/03/31 08:27:30;;;;;;;;;4.00;2.50;;;;;3.49;94.31;-18558.06;4974065;28;12359;-69
2022/03/31 08:29:56;;;;;;;;;3.00;3.00;;;;;3.62;95.18;-18562.00;4973855;28;11593;-68
2022/03/31 08:32:23;;;;;;;;;1.75;1.00;;;;;3.71;95.27;-18564.88;4973464;28;11497;-68
2022/03/31 08:34:50;;;;;;;;;2.75;2.50;;;;;3.76;94.90;-18566.25;4973926;28;11595;-68
2022/03/31 08:37:16;;;;;;;;;2.25;1.25;;;;;3.77;94.88;-18566.56;4973804;28;11595;-69
2022/03/31 08:39:43;;;;;;;;;3.00;3.00;;;;;3.76;94.80;-18566.09;4973854;28;11470;-68
2022/03/31 08:42:10;;;;;;;;;2.00;2.00;;;;;3.65;94.88;-18563.06;4973990;28;11499;-68
2022/03/31 08:44:39;;;;;;;;;1.75;1.75;;;;;3.84;95.49;-18568.66;4973706;28;11542;-71
2022/03/31 08:47:08;;;;;;;;;2.00;2.00;;;;;3.87;95.07;-18569.44;4972472;28;11597;-68
2022/03/31 08:49:35;;;;;;;;;3.00;2.00;;;;;3.84;94.74;-18568.53;4973593;28;11572;-70
2022/03/31 08:52:03;;;;;;;;;7.50;5.00;;;;;3.83;95.07;-18568.38;4973435;28;11501;-68
2022/03/31 08:54:30;;;;;;;;;5.00;4.75;;;;;3.89;95.07;-18570.03;4972331;28;11642;-68
2022/03/31 08:56:57;;;;;;;;;4.00;2.25;;;;;3.91;94.98;-18570.63;4973543;28;11476;-68
2022/03/31 08:59:43;;;;;;;;;7.00;6.00;;;;;3.78;94.61;-18566.84;4972513;28;11493;-69
2022/03/31 09:02:25;;;;;;;;;3.25;1.75;;;;;3.78;95.14;-18566.84;4973040;28;11680;-69
2022/03/31 09:05:06;;;;;;;;;4.25;4.25;;;;;3.88;95.30;-18569.72;4973285;28;11474;-69
2022/03/31 09:07:32;;;;;;;;;5.25;5.25;;;;;3.92;95.56;-18571.09;4973364;28;11512;-69
2022/03/31 09:09:59;;;;;;;;;3.50;3.50;;;;;3.89;95.17;-18570.19;4973436;28;11638;-70
2022/03/31 09:12:36;;;;;;;;;5.25;3.50;;;;;3.96;95.01;-18572.16;4972651;28;11545;-70
2022/03/31 09:15:22;;;;;;;;;6.75;5.25;;;;;4.06;95.24;-18575.03;4969015;28;11488;-70
2022/03/31 09:17:54;;;;;;;;;5.00;5.00;;;;;4.03;94.37;-18574.28;4980165;28;12190;-69
2022/03/31 09:20:21;;;;;;;;;4.00;4.00;;;;;4.16;94.94;-18578.19;4992171;28;11662;-69
2022/03/31 09:22:49;;;;;;;;;5.25;5.25;;;;;4.27;95.00;-18581.38;4976054;28;11604;-69
2022/03/31 09:25:27;;;;;;;;;4.75;4.75;;;;;4.29;94.66;-18582.13;4972746;28;11600;-72
2022/03/31 09:27:53;;;;;;;;;7.50;6.00;;;;;4.42;94.35;-18585.91;4972652;28;11494;-70
2022/03/31 09:30:20;;;;;;;;;8.25;5.75;;;;;4.52;93.61;-18588.81;4971377;28;11619;-71
2022/03/31 09:32:48;;;;;;;;;5.00;4.00;;;;;4.83;93.48;-18598.19;4972277;28;11574;-70
2022/03/31 09:35:20;;;;;;;;;6.50;6.00;;;;;5.26;93.11;-18610.88;4972953;28;12321;-70
2022/03/31 09:37:49;;;;;;;;;5.50;5.50;;;;;5.17;92.13;-18608.16;4972935;28;11476;-70
2022/03/31 09:40:17;;;;;;;;;8.00;4.50;;;;;5.10;91.89;-18606.19;4972504;28;11609;-70
2022/03/31 09:43:04;;;;;;;;;5.25;5.25;;;;;5.16;92.10;-18607.84;4972062;28;11604;-71
2022/03/31 09:45:39;;;;;;;;;9.00;8.00;;;;;5.37;92.46;-18614.06;4971496;28;12227;-69
2022/03/31 09:48:16;;;;;;;;;9.25;9.00;;;;;5.29;89.59;-18611.63;4972431;28;11465;-69
2022/03/31 09:50:44;;;;;;;;;11.50;7.50;;;;;5.19;87.33;-18608.75;4972428;28;11581;-70
2022/03/31 09:53:11;;;;;;;;;11.25;9.50;;;;;5.31;88.26;-18612.25;4972061;28;11525;-72
2022/03/31 09:55:44;;;;;;;;;8.75;8.25;;;;;5.43;88.08;-18615.88;4972347;28;11504;-69
2022/03/31 09:58:20;;;;;;;;;8.00;7.75;;;;;5.34;87.69;-18613.31;4972499;28;11651;-69
2022/03/31 10:00:47;;;;;;;;;6.25;6.25;;;;;5.34;88.11;-18613.16;4972252;28;11546;-69
2022/03/31 10:03:17;;;;;;;;;9.25;9.00;;;;;4.98;85.96;-18602.41;4971827;28;11553;-69
2022/03/31 10:05:46;;;;;;;;;8.00;5.75;;;;;4.70;85.52;-18594.09;4972111;28;11572;-69
2022/03/31 10:08:13;;;;;;;;;7.75;7.00;;;;;4.83;86.85;-18598.19;4972032;28;11640;-69
2022/03/31 10:10:40;;;;;;;;;7.00;7.00;;;;;4.98;86.95;-18602.41;4970899;28;11490;-69
2022/03/31 10:13:22;;;;;;;;;7.00;5.50;;;;;5.15;87.50;-18607.72;5084591;27;13421;-69
2022/03/31 10:15:58;;;;;;;;;7.50;7.50;;;;;5.26;86.81;-18610.88;5083101;28;11446;-68
2022/03/31 10:18:25;;;;;;;;;6.00;6.00;;;;;5.14;87.09;-18607.25;5067668;28;11436;-68
2022/03/31 10:20:54;;;;;;;;;9.75;8.00;;;;;5.21;86.53;-18609.53;5067376;28;11433;-72
2022/03/31 10:26:06;;;;;;;;;8.50;5.75;;;;;5.04;85.59;-18604.38;5068057;28;11426;-71
2022/03/31 10:28:32;;;;;;;;;16.25;9.75;;;;;4.87;85.37;-18599.38;5067479;28;11727;-72
2022/03/31 10:31:05;;;;;;;;;8.75;8.75;;;;;4.77;86.41;-18596.38;5066718;28;11553;-72
2022/03/31 10:33:42;;;;;;;;;9.25;9.25;;;;;4.81;87.90;-18597.41;5067413;28;11417;-70
2022/03/31 10:36:13;;;;;;;;;5.50;3.00;;;;;4.93;88.74;-18601.19;5066390;28;11415;-71
2022/03/31 10:38:56;;;;;;;;;7.75;7.75;;;;;4.98;88.39;-18602.56;5067417;28;12230;-70
2022/03/31 10:41:34;;;;;;;;;12.00;9.75;;;;;5.08;88.24;-18605.59;5066941;28;11431;-71
2022/03/31 10:44:16;;;;;;;;;6.25;6.25;;;;;4.92;87.75;-18600.91;5067574;28;11440;-71
2022/03/31 10:46:45;;;;;;;;;13.75;12.00;;;;;4.84;87.08;-18598.47;5066014;28;11411;-71
2022/03/31 10:49:17;;;;;;;;;11.00;8.75;;;;;4.95;88.73;-18601.81;5066846;28;11516;-72
2022/03/31 10:51:45;;;;;;;;;12.25;12.00;;;;;4.84;87.77;-18598.31;5066380;28;11544;-72
2022/03/31 10:54:25;;;;;;;;;11.50;7.50;;;;;5.02;88.72;-18603.78;5066766;28;11438;-72
2022/03/31 10:57:12;;;;;;;;;10.25;7.50;;;;;5.12;88.87;-18606.81;5066787;28;12259;-72
2022/03/31 10:59:40;;;;;;;;;9.50;9.00;;;;;5.02;87.99;-18603.63;5066764;28;11461;-71
2022/03/31 11:02:15;;;;;;;;;17.00;10.00;;;;;4.92;88.11;-18600.75;5066262;28;11486;-72
2022/03/31 11:04:54;;;;;;;;;10.00;10.00;;;;;4.90;88.95;-18600.28;5066898;28;11514;-72
2022/03/31 11:07:24;;;;;;;;;9.75;9.25;;;;;4.78;88.67;-18596.66;5066456;28;11882;-73
2022/03/31 11:10:04;;;;;;;;;6.25;6.25;;;;;4.76;89.99;-18596.06;5066425;28;11528;-72
2022/03/31 11:12:31;;;;;;;;;10.00;10.00;;;;;4.83;90.17;-18598.03;5080628;28;11522;-71
2022/03/31 11:15:00;;;;;;;;;7.50;6.25;;;;;4.69;90.61;-18593.94;5086397;28;12213;-71
2022/03/31 11:17:29;;;;;;;;;8.50;7.00;;;;;4.67;91.27;-18593.19;5086424;28;11507;-71
2022/03/31 11:20:03;;;;;;;;;9.50;8.50;;;;;4.53;91.02;-18589.09;5086635;28;11419;-70
2022/03/31 11:22:30;;;;;;;;;10.75;8.25;;;;;4.52;91.97;-18588.81;5084885;28;11543;-72
2022/03/31 11:25:10;;;;;;;;;8.50;6.00;;;;;4.56;92.49;-18590.00;5072692;28;12224;-72
2022/03/31 11:27:40;;;;;;;;;5.50;4.00;;;;;4.62;93.50;-18591.97;5073190;28;11550;-71
2022/03/31 11:30:16;;;;;;;;;6.00;6.00;;;;;4.59;92.70;-18591.06;5071924;28;12339;-72
2022/03/31 11:32:43;;;;;;;;;9.75;6.25;;;;;4.35;92.18;-18583.66;5072891;28;11535;-72
2022/03/31 11:35:12;;;;;;;;;3.00;3.00;;;;;4.45;93.00;-18586.69;5073091;28;11444;-71
2022/03/31 11:37:47;;;;;;;;;5.00;4.25;;;;;4.36;93.19;-18584.09;5072887;28;11405;-71
2022/03/31 11:40:35;;;;;;;;;4.00;4.00;;;;;4.36;94.16;-18583.97;5073029;28;11415;-72
2022/03/31 11:43:05;;;;;;;;;0.50;0.50;;;;;4.32;94.53;-18582.91;5072381;28;11504;-72
2022/03/31 11:45:36;;;;;;;;;4.00;4.00;;;;;4.26;95.01;-18581.22;5072915;28;11409;-72